Time;durP1;ratioP1;P1;durP2;ratioP2;P2;SDS_P1;SDS_P2;PMS_P1;PMS_P2;Temp;Humidity;BMP_temperature;BMP_pressure;BME280_temperature;BME280_humidity;BME280_pressure;Samples;Min_cycle;Max_cycle;Signal;HPM_P1;HPM_P2
2024/02/11 00:05:10;;;;;;;190.73;178.38;;;9.50;99.90;;;;;;12568598;28;20053;-35
2024/02/11 00:11:12;;;;;;;185.20;172.90;;;9.50;99.90;;;;;;12584117;28;20063;-34
2024/02/11 00:17:17;;;;;;;183.82;171.63;;;9.60;99.90;;;;;;12588830;28;20052;-36
2024/02/11 00:23:22;;;;;;;185.90;174.00;;;9.60;99.90;;;;;;12567552;28;20424;-35
2024/02/11 00:29:24;;;;;;;181.68;169.65;;;9.50;99.90;;;;;;12584117;28;20520;-36
2024/02/11 00:35:27;;;;;;;174.70;163.23;;;9.50;99.90;;;;;;12576096;28;20044;-35
2024/02/11 00:41:28;;;;;;;182.52;170.63;;;9.60;99.90;;;;;;12576444;28;20465;-35
2024/02/11 00:47:30;;;;;;;176.80;165.00;;;9.50;99.90;;;;;;12570584;28;20099;-35
2024/02/11 00:53:33;;;;;;;189.38;176.90;;;9.50;99.90;;;;;;12573011;28;20048;-35
2024/02/11 00:59:35;;;;;;;182.18;170.30;;;9.50;99.90;;;;;;12580307;28;20105;-35
2024/02/11 01:05:37;;;;;;;182.02;170.18;;;9.40;99.90;;;;;;12564233;28;20060;-36
2024/02/11 01:11:38;;;;;;;189.20;176.75;;;9.40;99.90;;;;;;12572981;28;20529;-35
2024/02/11 01:17:41;;;;;;;190.43;177.85;;;9.40;99.90;;;;;;12584328;28;20135;-35
2024/02/11 01:23:44;;;;;;;205.60;192.23;;;9.30;99.90;;;;;;12575824;28;20048;-36
2024/02/11 01:29:46;;;;;;;206.97;193.47;;;9.40;99.90;;;;;;12573030;28;20048;-35
2024/02/11 01:35:48;;;;;;;207.57;194.13;;;9.30;99.90;;;;;;12581808;28;20516;-36
2024/02/11 01:41:50;;;;;;;206.55;193.05;;;9.30;99.90;;;;;;12573197;28;20052;-35
2024/02/11 01:47:53;;;;;;;199.95;187.02;;;9.20;99.90;;;;;;12572645;28;20061;-36
2024/02/11 01:53:56;;;;;;;202.15;188.95;;;9.20;99.90;;;;;;12570466;28;20061;-36
2024/02/11 01:59:59;;;;;;;202.82;189.50;;;9.20;99.90;;;;;;12555739;28;20389;-35
2024/02/11 02:06:02;;;;;;;224.00;209.63;;;9.20;99.90;;;;;;12560154;28;20064;-35
2024/02/11 02:12:06;;;;;;;225.45;210.98;;;9.20;99.90;;;;;;12561175;28;20056;-36
2024/02/11 02:18:08;;;;;;;224.40;210.10;;;9.10;99.90;;;;;;12579346;28;20053;-35
2024/02/11 02:24:10;;;;;;;216.65;202.95;;;9.10;99.90;;;;;;12568050;28;20056;-35
2024/02/11 02:30:12;;;;;;;218.48;204.65;;;9.10;99.90;;;;;;12577511;28;20095;-35
2024/02/11 02:36:17;;;;;;;216.68;202.90;;;9.20;99.90;;;;;;12567266;28;20386;-35
2024/02/11 02:42:20;;;;;;;209.10;195.88;;;9.20;99.90;;;;;;12574579;28;21429;-35
2024/02/11 02:48:22;;;;;;;211.38;198.02;;;9.20;99.90;;;;;;12572629;28;20136;-34
2024/02/11 02:54:24;;;;;;;214.23;200.15;;;9.20;99.90;;;;;;12594242;28;20056;-35
2024/02/11 03:00:26;;;;;;;211.77;198.00;;;9.20;99.90;;;;;;12582920;28;20174;-35
2024/02/11 03:06:28;;;;;;;213.23;199.43;;;9.20;99.90;;;;;;12589802;28;20060;-35
2024/02/11 03:12:31;;;;;;;211.40;197.68;;;9.20;99.90;;;;;;12579602;28;20068;-35
2024/02/11 03:18:32;;;;;;;218.45;204.48;;;9.10;99.90;;;;;;12584532;28;20437;-35
2024/02/11 03:24:34;;;;;;;227.15;212.57;;;9.10;99.90;;;;;;12592248;28;20054;-35
2024/02/11 03:30:36;;;;;;;232.50;217.35;;;9.10;99.90;;;;;;12570311;28;20131;-35
2024/02/11 03:36:41;;;;;;;230.00;215.20;;;9.10;99.90;;;;;;12579431;28;20516;-35
2024/02/11 03:42:44;;;;;;;228.23;213.55;;;9.10;99.90;;;;;;12575325;28;20044;-36
2024/02/11 03:48:45;;;;;;;230.90;216.25;;;9.10;99.90;;;;;;12575063;28;20052;-36
2024/02/11 03:54:47;;;;;;;227.50;213.07;;;9.00;99.90;;;;;;12571952;28;20413;-36
2024/02/11 04:00:49;;;;;;;228.85;214.20;;;9.00;99.90;;;;;;12586523;28;20048;-36
2024/02/11 04:06:54;;;;;;;227.18;212.45;;;9.00;99.90;;;;;;12583716;28;20078;-35
2024/02/11 04:12:58;;;;;;;234.70;219.55;;;9.00;99.90;;;;;;12577603;28;20147;-35
2024/02/11 04:19:01;;;;;;;239.95;224.35;;;9.00;99.90;;;;;;12577073;28;20056;-36
2024/02/11 04:25:07;;;;;;;244.70;228.90;;;9.00;99.90;;;;;;12585702;28;20060;-35
2024/02/11 04:31:09;;;;;;;239.63;224.15;;;9.00;99.90;;;;;;12570536;28;20131;-35
2024/02/11 04:37:12;;;;;;;244.52;228.85;;;8.90;99.90;;;;;;12583706;28;20052;-35
2024/02/11 04:43:14;;;;;;;254.20;237.73;;;8.90;99.90;;;;;;12584804;28;20049;-35
2024/02/11 04:49:16;;;;;;;263.08;246.32;;;8.90;99.90;;;;;;12586434;28;20501;-36
2024/02/11 04:55:18;;;;;;;274.83;257.33;;;8.80;99.90;;;;;;12583130;28;20053;-36
2024/02/11 05:01:20;;;;;;;261.08;244.32;;;8.80;99.90;;;;;;12584666;28;20055;-36
2024/02/11 05:07:22;;;;;;;258.88;242.63;;;8.70;99.90;;;;;;12582273;28;20096;-35
2024/02/11 05:13:29;;;;;;;266.17;249.38;;;8.70;99.90;;;;;;12584768;28;20056;-36
2024/02/11 05:19:32;;;;;;;271.05;253.45;;;8.60;99.90;;;;;;12579094;28;20187;-36
2024/02/11 05:25:36;;;;;;;272.92;255.57;;;8.60;99.90;;;;;;12573459;28;20425;-35
2024/02/11 05:31:37;;;;;;;278.83;261.10;;;8.60;99.90;;;;;;12584840;28;20059;-36
2024/02/11 05:37:41;;;;;;;277.92;260.40;;;8.60;99.90;;;;;;12570230;28;20513;-36
2024/02/11 05:43:43;;;;;;;278.02;260.27;;;8.50;99.90;;;;;;12583590;28;20048;-35
2024/02/11 05:49:44;;;;;;;279.42;261.83;;;8.50;99.90;;;;;;12579153;28;20193;-36
2024/02/11 05:55:49;;;;;;;268.58;251.63;;;8.50;99.90;;;;;;12583048;28;20084;-35
2024/02/11 06:01:51;;;;;;;272.50;254.85;;;8.50;99.90;;;;;;12565505;28;20405;-36
2024/02/11 06:07:55;;;;;;;270.77;253.52;;;8.40;99.90;;;;;;12574242;28;20067;-35
2024/02/11 06:13:58;;;;;;;270.50;253.60;;;8.40;99.90;;;;;;12569061;28;20136;-35
2024/02/11 06:20:00;;;;;;;261.92;245.35;;;8.40;99.90;;;;;;12571649;28;20053;-35
2024/02/11 06:26:02;;;;;;;264.90;247.85;;;8.50;99.90;;;;;;12591245;28;20074;-36
2024/02/11 06:32:05;;;;;;;271.73;254.48;;;8.40;99.90;;;;;;12593336;28;20053;-35
2024/02/11 06:38:07;;;;;;;273.75;256.48;;;8.40;99.90;;;;;;12581210;28;20049;-35
2024/02/11 06:44:12;;;;;;;264.67;247.80;;;8.50;99.90;;;;;;12582311;28;20052;-35
2024/02/11 06:50:18;;;;;;;259.58;243.55;;;8.50;99.90;;;;;;12589505;28;20093;-36
2024/02/11 06:56:20;;;;;;;268.70;251.88;;;8.50;99.90;;;;;;12581674;28;20049;-35
2024/02/11 07:02:22;;;;;;;267.17;250.20;;;8.40;99.90;;;;;;12586527;28;20048;-36
2024/02/11 07:08:27;;;;;;;268.95;251.75;;;8.40;99.90;;;;;;12576326;28;20056;-36
2024/02/11 07:14:29;;;;;;;272.58;255.05;;;8.40;99.90;;;;;;12590329;28;20158;-36
2024/02/11 07:20:31;;;;;;;275.55;257.85;;;8.40;99.90;;;;;;12587832;28;20116;-36
2024/02/11 07:26:38;;;;;;;277.90;260.05;;;8.40;99.90;;;;;;12585506;28;20091;-36
2024/02/11 07:32:42;;;;;;;294.02;275.33;;;8.50;99.90;;;;;;12584702;28;20076;-36
2024/02/11 07:38:47;;;;;;;280.92;263.10;;;8.40;99.90;;;;;;12557717;28;20044;-36
2024/02/11 07:44:48;;;;;;;270.48;253.32;;;8.50;99.90;;;;;;12571444;28;20040;-36
2024/02/11 07:50:51;;;;;;;284.13;265.90;;;8.50;99.90;;;;;;12583993;28;20048;-36
2024/02/11 07:56:53;;;;;;;287.67;269.05;;;8.50;99.90;;;;;;12578349;28;20045;-36
2024/02/11 08:02:55;;;;;;;292.33;273.25;;;8.50;99.90;;;;;;12585371;28;20064;-36
2024/02/11 08:08:57;;;;;;;283.85;265.58;;;8.50;99.90;;;;;;12586443;28;20052;-35
2024/02/11 08:14:58;;;;;;;284.02;265.95;;;8.50;99.90;;;;;;12588114;28;20088;-35
2024/02/11 08:21:02;;;;;;;284.65;266.60;;;8.60;99.90;;;;;;12572181;28;20527;-36
2024/02/11 08:27:04;;;;;;;298.27;279.03;;;8.60;99.90;;;;;;12585121;28;20187;-36
2024/02/11 08:33:09;;;;;;;300.45;281.40;;;8.50;99.90;;;;;;12588512;28;20087;-36
2024/02/11 08:39:11;;;;;;;294.05;275.58;;;8.60;99.90;;;;;;12580846;28;20080;-35
2024/02/11 08:45:14;;;;;;;289.88;271.35;;;8.60;99.90;;;;;;12585137;28;20429;-36
2024/02/11 08:51:20;;;;;;;280.77;263.10;;;8.70;99.90;;;;;;12562057;28;20143;-36
2024/02/11 08:57:26;;;;;;;291.05;272.95;;;8.80;99.90;;;;;;12577039;28;20485;-36
2024/02/11 09:03:28;;;;;;;297.63;278.70;;;8.80;99.90;;;;;;12549070;28;20063;-36
2024/02/11 09:09:30;;;;;;;303.13;284.13;;;8.90;99.90;;;;;;12578654;28;20048;-36
2024/02/11 09:15:31;;;;;;;291.83;273.67;;;8.90;99.90;;;;;;12584638;28;20040;-36
2024/02/11 09:21:33;;;;;;;294.63;276.33;;;8.90;99.90;;;;;;12580680;28;20477;-36
2024/02/11 09:27:35;;;;;;;287.88;270.13;;;8.90;99.90;;;;;;12576571;28;20051;-36
2024/02/11 09:33:38;;;;;;;304.17;286.10;;;9.00;99.90;;;;;;12582380;28;20064;-36
2024/02/11 09:39:40;;;;;;;298.10;280.15;;;9.00;99.90;;;;;;12579206;28;20040;-36
2024/02/11 09:45:43;;;;;;;296.50;278.95;;;9.10;99.90;;;;;;12583609;28;20056;-36
2024/02/11 09:51:46;;;;;;;292.63;275.43;;;9.10;99.90;;;;;;12588683;28;20194;-35
2024/02/11 09:57:48;;;;;;;294.40;277.05;;;9.20;99.90;;;;;;12589016;28;20413;-36
2024/02/11 10:03:54;;;;;;;293.48;276.00;;;9.20;99.90;;;;;;12596408;28;20052;-36
2024/02/11 10:09:56;;;;;;;304.95;286.80;;;9.30;99.90;;;;;;12591697;28;20053;-35
2024/02/11 10:15:59;;;;;;;311.52;292.88;;;9.30;99.90;;;;;;12596591;28;20147;-36
2024/02/11 10:22:00;;;;;;;309.67;291.70;;;9.40;99.90;;;;;;12598981;28;20064;-37
2024/02/11 10:28:23;;;;;;;309.25;291.48;;;9.40;99.90;;;;;;12576596;28;20059;-36
2024/02/11 10:34:25;;;;;;;311.85;294.15;;;9.50;99.90;;;;;;12589307;28;20053;-35
2024/02/11 10:40:26;;;;;;;303.48;286.02;;;9.50;99.90;;;;;;12590890;28;20053;-36
2024/02/11 10:46:28;;;;;;;313.30;295.02;;;9.50;99.90;;;;;;12588620;28;20052;-36
2024/02/11 10:52:36;;;;;;;317.65;299.45;;;9.50;99.90;;;;;;12591057;28;20489;-36
2024/02/11 10:58:46;;;;;;;302.42;284.95;;;9.40;99.90;;;;;;12586646;28;20055;-36
2024/02/11 11:04:49;;;;;;;312.23;294.10;;;9.40;99.90;;;;;;12580643;28;20044;-35
2024/02/11 11:10:51;;;;;;;287.00;270.63;;;9.40;99.90;;;;;;12586122;28;20533;-35
2024/02/11 11:16:54;;;;;;;291.58;274.85;;;9.30;99.90;;;;;;12585508;28;20493;-36
2024/02/11 11:22:56;;;;;;;296.42;279.75;;;9.20;99.90;;;;;;12585767;28;20048;-36
2024/02/11 11:29:03;;;;;;;272.20;256.95;;;9.10;99.90;;;;;;12590981;28;20079;-35
2024/02/11 11:35:06;;;;;;;270.77;255.45;;;9.00;99.90;;;;;;12561199;28;20095;-35
2024/02/11 11:41:09;;;;;;;258.38;243.75;;;8.90;99.90;;;;;;12583596;28;20091;-35
2024/02/11 11:47:13;;;;;;;252.18;237.63;;;8.80;99.90;;;;;;12587379;28;20135;-36
2024/02/11 11:53:22;;;;;;;251.00;236.70;;;8.70;99.90;;;;;;12578783;28;20060;-35
2024/02/11 11:59:25;;;;;;;238.32;224.27;;;8.70;99.90;;;;;;12583412;28;20079;-35
2024/02/11 12:05:29;;;;;;;245.40;231.02;;;8.50;99.90;;;;;;12624285;22;20065;-86
2024/02/11 12:11:34;;;;;;;228.87;215.47;;;8.40;99.90;;;;;;12699611;27;20056;-88
2024/02/11 12:17:36;;;;;;;219.32;206.32;;;8.30;99.90;;;;;;12736962;27;20043;-89
2024/02/11 12:23:39;;;;;;;218.35;205.57;;;8.20;99.90;;;;;;12650091;28;20044;-89
2024/02/11 12:29:41;;;;;;;219.73;206.48;;;8.10;99.90;;;;;;12631642;28;20135;-90
2024/02/11 12:35:44;;;;;;;219.93;207.30;;;8.10;99.90;;;;;;12645129;28;20035;-91
2024/02/11 12:41:46;;;;;;;233.40;219.48;;;8.10;99.90;;;;;;12640261;28;20052;-88
2024/02/11 12:47:48;;;;;;;212.00;199.65;;;8.10;99.90;;;;;;12623573;28;20052;-90
2024/02/11 12:53:51;;;;;;;203.02;191.30;;;8.00;99.90;;;;;;12604553;28;20139;-90
2024/02/11 12:59:53;;;;;;;186.48;175.30;;;8.10;99.90;;;;;;12617765;28;20048;-87
2024/02/11 13:05:58;;;;;;;207.82;195.82;;;8.20;99.90;;;;;;12646480;28;20059;-88
2024/02/11 13:12:00;;;;;;;215.48;202.77;;;8.00;99.90;;;;;;12636570;28;20071;-86
2024/02/11 13:18:03;;;;;;;222.80;209.85;;;8.00;99.90;;;;;;12660073;28;20056;-88
2024/02/11 13:24:05;;;;;;;227.43;214.27;;;8.00;99.90;;;;;;12650583;28;20060;-88
2024/02/11 13:30:07;;;;;;;221.07;208.20;;;8.00;99.90;;;;;;12656649;28;20067;-88
2024/02/11 13:36:10;;;;;;;215.45;202.48;;;7.90;99.90;;;;;;12634020;28;20059;-90
2024/02/11 13:42:13;;;;;;;236.70;222.80;;;8.10;99.90;;;;;;12638100;28;20090;-89
2024/02/11 13:48:15;;;;;;;241.20;227.20;;;8.30;99.90;;;;;;12623406;28;20039;-87
2024/02/11 13:54:17;;;;;;;248.35;234.00;;;8.30;99.90;;;;;;12648212;28;20396;-89
2024/02/11 14:00:21;;;;;;;254.57;239.55;;;8.40;99.90;;;;;;12631914;28;20032;-88
2024/02/11 14:06:24;;;;;;;259.13;243.57;;;8.30;99.90;;;;;;12649245;28;20045;-89
2024/02/11 14:12:29;;;;;;;264.63;249.05;;;8.40;99.90;;;;;;12576997;22;20049;-36
2024/02/11 14:18:31;;;;;;;267.60;251.93;;;8.40;99.90;;;;;;12542989;28;20139;-36
2024/02/11 14:24:33;;;;;;;264.95;249.25;;;8.30;99.90;;;;;;12583365;28;20156;-36
2024/02/11 14:30:34;;;;;;;277.63;261.42;;;8.30;99.90;;;;;;12536535;28;20063;-36
2024/02/11 14:36:41;;;;;;;270.77;254.77;;;8.30;99.90;;;;;;12539168;28;20412;-37
2024/02/11 14:42:46;;;;;;;269.58;253.52;;;8.30;99.90;;;;;;12530448;28;20052;-37
2024/02/11 14:48:50;;;;;;;257.95;242.75;;;8.30;99.90;;;;;;12536956;28;20060;-36
2024/02/11 14:54:52;;;;;;;263.83;248.07;;;8.40;99.90;;;;;;12537870;28;20091;-36
2024/02/11 15:00:54;;;;;;;268.95;253.05;;;8.40;99.90;;;;;;12537747;28;20076;-36
2024/02/11 15:06:57;;;;;;;256.83;241.55;;;8.40;99.90;;;;;;12540466;28;20060;-37
2024/02/11 15:12:59;;;;;;;266.23;250.77;;;8.40;99.90;;;;;;12549733;28;20091;-37
2024/02/11 15:19:01;;;;;;;259.25;244.07;;;8.40;99.90;;;;;;12524469;28;20053;-36
2024/02/11 15:25:04;;;;;;;247.77;233.15;;;8.40;99.90;;;;;;12516462;28;20128;-37
2024/02/11 15:31:07;;;;;;;258.45;243.35;;;8.50;99.90;;;;;;12520094;28;20061;-37
2024/02/11 15:37:10;;;;;;;266.38;250.68;;;8.50;99.90;;;;;;12519936;28;20076;-36
2024/02/11 15:43:13;;;;;;;258.00;242.93;;;8.40;99.90;;;;;;12530973;28;20139;-37
2024/02/11 15:49:15;;;;;;;248.70;233.83;;;8.50;99.90;;;;;;12527255;28;20049;-36
2024/02/11 15:55:21;;;;;;;241.73;227.30;;;8.60;99.90;;;;;;12529504;28;20139;-36
2024/02/11 16:01:24;;;;;;;257.25;241.57;;;8.60;99.90;;;;;;12525237;28;20065;-37
2024/02/11 16:07:27;;;;;;;246.60;231.33;;;8.50;99.90;;;;;;12530957;28;20147;-38
2024/02/11 16:13:29;;;;;;;251.00;235.95;;;8.50;99.90;;;;;;12516325;28;20535;-37
2024/02/11 16:19:31;;;;;;;253.27;237.95;;;8.50;99.90;;;;;;12526032;28;20515;-36
2024/02/11 16:25:37;;;;;;;263.13;247.15;;;8.40;99.90;;;;;;12527071;28;20105;-37
2024/02/11 16:31:41;;;;;;;271.20;254.75;;;8.40;99.90;;;;;;12534898;28;20531;-36
2024/02/11 16:37:43;;;;;;;256.85;241.20;;;8.40;99.90;;;;;;12536291;28;20044;-36
2024/02/11 16:43:46;;;;;;;263.88;247.65;;;8.40;99.90;;;;;;12538418;28;20061;-37
2024/02/11 16:49:49;;;;;;;272.58;255.32;;;8.30;99.90;;;;;;12539501;28;20076;-37
2024/02/11 16:55:51;;;;;;;279.98;262.35;;;8.30;99.90;;;;;;12533232;28;20106;-37
2024/02/11 17:01:53;;;;;;;260.63;245.13;;;8.20;99.90;;;;;;12544010;28;20045;-36
2024/02/11 17:07:55;;;;;;;264.45;248.02;;;8.20;99.90;;;;;;12537594;28;20076;-36
2024/02/11 17:13:57;;;;;;;266.63;250.60;;;8.20;99.90;;;;;;12542617;28;20094;-36
2024/02/11 17:19:59;;;;;;;254.57;239.18;;;8.10;99.90;;;;;;12519080;28;20052;-36
2024/02/11 17:26:03;;;;;;;253.30;237.55;;;8.10;99.90;;;;;;12506188;28;20049;-36
2024/02/11 17:32:06;;;;;;;250.83;235.40;;;8.10;99.90;;;;;;12523804;28;20057;-36
2024/02/11 17:38:27;;;;;;;242.63;227.60;;;8.10;99.90;;;;;;12522379;28;20496;-37
2024/02/11 17:44:31;;;;;;;253.13;237.55;;;8.10;99.90;;;;;;12516558;28;20087;-37
2024/02/11 17:50:34;;;;;;;248.98;233.85;;;8.10;99.90;;;;;;12519502;28;20077;-37
2024/02/11 17:56:37;;;;;;;253.27;237.70;;;8.10;99.90;;;;;;12526669;28;20455;-37
2024/02/11 18:02:42;;;;;;;252.13;237.27;;;8.00;99.90;;;;;;12522977;28;20492;-36
2024/02/11 18:08:44;;;;;;;256.35;240.82;;;8.00;99.90;;;;;;12516980;28;20420;-36
2024/02/11 18:14:46;;;;;;;263.65;246.93;;;8.00;99.90;;;;;;12532271;28;20057;-35
2024/02/11 18:20:48;;;;;;;265.88;249.52;;;8.00;99.90;;;;;;12537342;28;20489;-36
2024/02/11 18:26:50;;;;;;;267.25;250.95;;;8.00;99.90;;;;;;12537023;28;20079;-36
2024/02/11 18:32:52;;;;;;;265.50;248.63;;;8.00;99.90;;;;;;12539143;28;20049;-36
2024/02/11 18:38:54;;;;;;;266.85;251.05;;;8.00;99.90;;;;;;12543278;28;20117;-35
2024/02/11 18:44:56;;;;;;;260.63;245.00;;;8.00;99.90;;;;;;12538636;28;20053;-36
2024/02/11 18:50:58;;;;;;;257.67;242.32;;;8.00;99.90;;;;;;12543243;28;20053;-36
2024/02/11 18:57:01;;;;;;;252.05;236.55;;;7.90;99.90;;;;;;12547778;28;20049;-36
2024/02/11 19:03:03;;;;;;;247.90;232.82;;;7.90;99.90;;;;;;12543765;28;20057;-35
2024/02/11 19:09:06;;;;;;;244.35;229.05;;;8.00;99.90;;;;;;12544393;28;20068;-36
2024/02/11 19:15:09;;;;;;;247.15;232.05;;;8.00;99.90;;;;;;12543354;28;20099;-36
2024/02/11 19:21:13;;;;;;;257.55;241.27;;;8.00;99.90;;;;;;12529764;28;20049;-36
2024/02/11 19:27:15;;;;;;;266.70;249.93;;;8.00;99.90;;;;;;12529553;28;20065;-36
2024/02/11 19:33:17;;;;;;;289.48;271.67;;;8.00;99.90;;;;;;12525423;28;20063;-35
2024/02/11 19:39:19;;;;;;;283.67;266.33;;;7.90;99.90;;;;;;12532017;28;20076;-36
2024/02/11 19:45:21;;;;;;;272.65;255.95;;;8.00;99.90;;;;;;12525995;28;20049;-35
2024/02/11 19:51:28;;;;;;;279.45;262.25;;;8.00;99.90;;;;;;12526215;28;20049;-36
2024/02/11 19:57:32;;;;;;;273.80;256.90;;;7.90;99.90;;;;;;12528447;28;20461;-35
2024/02/11 20:03:37;;;;;;;264.65;248.40;;;7.90;99.90;;;;;;12530813;28;20413;-35
2024/02/11 20:09:39;;;;;;;245.93;230.88;;;7.80;99.90;;;;;;12533891;28;20060;-35
2024/02/11 20:15:43;;;;;;;233.00;218.30;;;7.90;99.90;;;;;;12531923;28;20187;-36
2024/02/11 20:21:45;;;;;;;240.93;226.38;;;7.90;99.90;;;;;;12527383;28;20401;-36
2024/02/11 20:27:47;;;;;;;231.50;217.30;;;7.90;99.90;;;;;;12532987;28;20509;-34
2024/02/11 20:33:50;;;;;;;229.40;215.40;;;7.90;99.90;;;;;;12521256;28;20057;-35
2024/02/11 20:39:55;;;;;;;236.32;221.65;;;7.90;99.90;;;;;;12539885;28;20063;-36
2024/02/11 20:45:56;;;;;;;233.43;219.57;;;7.90;99.90;;;;;;12526562;28;20049;-35
2024/02/11 20:51:59;;;;;;;228.63;214.90;;;7.90;99.90;;;;;;12535481;28;20096;-35
2024/02/11 20:58:02;;;;;;;228.20;214.32;;;7.90;99.90;;;;;;12534667;28;20176;-35
2024/02/11 21:04:07;;;;;;;223.80;210.00;;;7.90;99.90;;;;;;12534439;28;20049;-36
2024/02/11 21:10:13;;;;;;;229.88;215.68;;;7.80;99.90;;;;;;12544930;28;20560;-35
2024/02/11 21:16:15;;;;;;;228.23;214.10;;;7.90;99.90;;;;;;12534829;28;20052;-35
2024/02/11 21:22:17;;;;;;;221.30;207.95;;;7.80;99.90;;;;;;12524171;28;20519;-36
2024/02/11 21:28:19;;;;;;;208.02;195.55;;;7.80;99.90;;;;;;12516847;28;20060;-35
2024/02/11 21:34:22;;;;;;;197.57;185.30;;;7.80;99.90;;;;;;12515991;28;20076;-34
2024/02/11 21:40:24;;;;;;;192.67;180.90;;;7.80;99.90;;;;;;12514928;28;20064;-35
2024/02/11 21:46:28;;;;;;;188.52;177.20;;;7.80;99.90;;;;;;12520386;28;20579;-35
2024/02/11 21:52:30;;;;;;;171.40;160.90;;;7.80;99.90;;;;;;12517506;28;20109;-35
2024/02/11 21:58:32;;;;;;;168.75;158.52;;;7.80;99.90;;;;;;12525769;28;20057;-35
2024/02/11 22:04:33;;;;;;;177.68;166.52;;;7.80;99.90;;;;;;12517887;28;20658;-36
2024/02/11 22:10:36;;;;;;;163.25;153.07;;;7.80;99.90;;;;;;12533508;28;20056;-35
2024/02/11 22:16:38;;;;;;;164.65;154.75;;;7.80;99.90;;;;;;12522838;28;20140;-35
2024/02/11 22:22:40;;;;;;;165.38;154.95;;;7.90;99.90;;;;;;12527884;28;20513;-36
2024/02/11 22:28:42;;;;;;;163.10;153.30;;;7.90;99.90;;;;;;12526352;28;20056;-36
2024/02/11 22:34:44;;;;;;;162.40;152.43;;;7.80;99.90;;;;;;12529718;28;20060;-36
2024/02/11 22:40:46;;;;;;;166.45;156.20;;;7.90;99.90;;;;;;12531759;28;20048;-36
2024/02/11 22:46:49;;;;;;;167.32;157.00;;;7.80;99.90;;;;;;12534568;28;20049;-36
2024/02/11 22:52:51;;;;;;;171.10;160.80;;;7.80;99.90;;;;;;12531055;28;20045;-36
2024/02/11 22:58:54;;;;;;;168.15;157.77;;;7.80;99.90;;;;;;12543778;28;20045;-36
2024/02/11 23:04:56;;;;;;;165.32;155.18;;;7.80;99.90;;;;;;12538678;28;20390;-36
2024/02/11 23:10:58;;;;;;;161.05;151.18;;;7.80;99.90;;;;;;12542101;28;20413;-36
2024/02/11 23:17:00;;;;;;;157.27;148.00;;;7.80;99.90;;;;;;12535166;28;20497;-36
2024/02/11 23:23:05;;;;;;;162.88;152.98;;;7.70;99.90;;;;;;12525573;28;20049;-36
2024/02/11 23:29:09;;;;;;;165.35;155.40;;;7.70;99.90;;;;;;12527479;28;20061;-36
2024/02/11 23:35:13;;;;;;;157.73;148.17;;;7.70;99.90;;;;;;12528991;28;20444;-36
2024/02/11 23:41:15;;;;;;;162.23;152.43;;;7.70;99.90;;;;;;12530819;28;20551;-36
2024/02/11 23:47:17;;;;;;;161.85;152.38;;;7.60;99.90;;;;;;12520927;28;20060;-36
2024/02/11 23:53:20;;;;;;;164.43;154.57;;;7.70;99.90;;;;;;12528622;28;20064;-36
2024/02/11 23:59:25;;;;;;;162.18;152.18;;;7.60;99.90;;;;;;12530967;28;20715;-36
